sensor_id;sensor_type;location;lat;lon;timestamp;temperature;humidity
23403;DHT22;11874;48.228;11.684;2023-03-12T06:56:11;4.70;96.40
23403;DHT22;11874;48.228;11.684;2023-03-12T06:58:40;4.80;96.70
23403;DHT22;11874;48.228;11.684;2023-03-12T07:01:08;4.80;96.80
23403;DHT22;11874;48.228;11.684;2023-03-12T07:03:36;4.90;97.00
23403;DHT22;11874;48.228;11.684;2023-03-12T07:06:04;4.80;97.00
23403;DHT22;11874;48.228;11.684;2023-03-12T07:08:38;4.90;97.20
23403;DHT22;11874;48.228;11.684;2023-03-12T07:11:06;4.90;97.20
23403;DHT22;11874;48.228;11.684;2023-03-12T07:13:36;4.90;97.70
23403;DHT22;11874;48.228;11.684;2023-03-12T07:16:05;5.40;97.70
23403;DHT22;11874;48.228;11.684;2023-03-12T07:18:33;5.10;97.60
23403;DHT22;11874;48.228;11.684;2023-03-12T07:21:01;5.20;97.50
23403;DHT22;11874;48.228;11.684;2023-03-12T07:23:29;5.20;97.50
23403;DHT22;11874;48.228;11.684;2023-03-12T07:25:57;5.20;97.60
23403;DHT22;11874;48.228;11.684;2023-03-12T07:28:25;5.30;97.80
23403;DHT22;11874;48.228;11.684;2023-03-12T07:30:59;5.30;97.80
23403;DHT22;11874;48.228;11.684;2023-03-12T07:33:27;5.30;97.80
23403;DHT22;11874;48.228;11.684;2023-03-12T07:35:55;5.30;97.90
23403;DHT22;11874;48.228;11.684;2023-03-12T07:38:23;5.30;97.90
23403;DHT22;11874;48.228;11.684;2023-03-12T07:40:51;5.40;98.00
23403;DHT22;11874;48.228;11.684;2023-03-12T07:43:19;5.40;98.00
23403;DHT22;11874;48.228;11.684;2023-03-12T07:45:47;5.50;98.20
23403;DHT22;11874;48.228;11.684;2023-03-12T07:48:17;5.60;98.30
23403;DHT22;11874;48.228;11.684;2023-03-12T15:15:33;8.30;99.90
23403;DHT22;11874;48.228;11.684;2023-03-12T15:18:05;8.30;99.90
23403;DHT22;11874;48.228;11.684;2023-03-12T15:20:34;8.30;99.90
23403;DHT22;11874;48.228;11.684;2023-03-12T15:23:03;8.30;99.90
23403;DHT22;11874;48.228;11.684;2023-03-12T15:25:32;8.30;99.90
23403;DHT22;11874;48.228;11.684;2023-03-12T15:28:06;8.40;99.90
23403;DHT22;11874;48.228;11.684;2023-03-12T15:30:37;8.40;99.90
23403;DHT22;11874;48.228;11.684;2023-03-12T15:33:10;8.80;99.90
23403;DHT22;11874;48.228;11.684;2023-03-12T15:35:40;9.00;99.90
23403;DHT22;11874;48.228;11.684;2023-03-12T15:38:13;9.10;99.90
23403;DHT22;11874;48.228;11.684;2023-03-12T15:40:47;9.00;99.90
23403;DHT22;11874;48.228;11.684;2023-03-12T15:43:18;8.90;99.90
23403;DHT22;11874;48.228;11.684;2023-03-12T15:45:55;8.70;99.90
23403;DHT22;11874;48.228;11.684;2023-03-12T15:48:27;8.70;99.90
23403;DHT22;11874;48.228;11.684;2023-03-12T15:50:56;8.60;99.90
23403;DHT22;11874;48.228;11.684;2023-03-12T15:53:26;8.50;99.90
23403;DHT22;11874;48.228;11.684;2023-03-12T15:55:59;8.50;99.90
23403;DHT22;11874;48.228;11.684;2023-03-12T15:58:29;8.40;99.90
23403;DHT22;11874;48.228;11.684;2023-03-12T16:01:10;8.30;99.90
23403;DHT22;11874;48.228;11.684;2023-03-12T16:03:39;8.30;99.90
23403;DHT22;11874;48.228;11.684;2023-03-12T16:06:11;8.30;99.90
23403;DHT22;11874;48.228;11.684;2023-03-12T16:08:43;8.40;99.90
23403;DHT22;11874;48.228;11.684;2023-03-12T16:11:15;8.30;99.90
23403;DHT22;11874;48.228;11.684;2023-03-12T16:13:48;8.30;99.90
23403;DHT22;11874;48.228;11.684;2023-03-12T16:16:18;8.30;99.90
23403;DHT22;11874;48.228;11.684;2023-03-12T16:18:48;8.30;99.90
23403;DHT22;11874;48.228;11.684;2023-03-12T16:21:24;8.20;99.90
23403;DHT22;11874;48.228;11.684;2023-03-12T16:23:52;8.20;99.90
23403;DHT22;11874;48.228;11.684;2023-03-12T16:26:20;8.20;99.90
23403;DHT22;11874;48.228;11.684;2023-03-12T16:28:52;8.20;99.90
23403;DHT22;11874;48.228;11.684;2023-03-12T16:31:21;8.20;99.90
23403;DHT22;11874;48.228;11.684;2023-03-12T16:33:49;8.20;99.90
23403;DHT22;11874;48.228;11.684;2023-03-12T16:36:19;8.20;99.90
23403;DHT22;11874;48.228;11.684;2023-03-12T16:38:47;8.20;99.90
23403;DHT22;11874;48.228;11.684;2023-03-12T16:41:16;8.20;99.90
23403;DHT22;11874;48.228;11.684;2023-03-12T16:43:47;8.20;99.90
23403;DHT22;11874;48.228;11.684;2023-03-12T16:46:18;8.20;99.90
23403;DHT22;11874;48.228;11.684;2023-03-12T16:48:50;8.20;99.90
23403;DHT22;11874;48.228;11.684;2023-03-12T21:02:40;7.90;99.90
23403;DHT22;11874;48.228;11.684;2023-03-12T21:05:08;8.00;99.90
23403;DHT22;11874;48.228;11.684;2023-03-12T21:07:39;8.00;99.90
23403;DHT22;11874;48.228;11.684;2023-03-12T21:10:08;9.00;99.90
23403;DHT22;11874;48.228;11.684;2023-03-12T21:12:36;8.00;99.90
23403;DHT22;11874;48.228;11.684;2023-03-12T21:15:06;8.10;99.90
23403;DHT22;11874;48.228;11.684;2023-03-12T21:17:36;8.10;99.90
23403;DHT22;11874;48.228;11.684;2023-03-12T21:20:07;8.10;99.90
23403;DHT22;11874;48.228;11.684;2023-03-12T21:22:36;8.10;99.90
23403;DHT22;11874;48.228;11.684;2023-03-12T21:25:05;8.10;99.90
23403;DHT22;11874;48.228;11.684;2023-03-12T21:27:33;8.10;99.90
23403;DHT22;11874;48.228;11.684;2023-03-12T21:30:15;8.20;99.90
23403;DHT22;11874;48.228;11.684;2023-03-12T21:32:43;8.10;99.90
23403;DHT22;11874;48.228;11.684;2023-03-12T21:35:13;8.10;99.90
23403;DHT22;11874;48.228;11.684;2023-03-12T21:37:40;8.10;99.90
23403;DHT22;11874;48.228;11.684;2023-03-12T21:40:10;8.10;99.90
23403;DHT22;11874;48.228;11.684;2023-03-12T21:42:38;8.10;99.90
23403;DHT22;11874;48.228;11.684;2023-03-12T21:45:07;8.10;99.90
23403;DHT22;11874;48.228;11.684;2023-03-12T21:47:35;8.10;99.90
23403;DHT22;11874;48.228;11.684;2023-03-12T21:50:04;8.00;99.90
23403;DHT22;11874;48.228;11.684;2023-03-12T21:52:33;8.10;99.90
23403;DHT22;11874;48.228;11.684;2023-03-12T21:55:09;8.10;99.90
23403;DHT22;11874;48.228;11.684;2023-03-12T21:57:37;8.10;99.90
23403;DHT22;11874;48.228;11.684;2023-03-12T22:00:06;8.10;99.90
23403;DHT22;11874;48.228;11.684;2023-03-12T22:02:38;8.10;99.90
23403;DHT22;11874;48.228;11.684;2023-03-12T22:05:07;8.10;99.90
23403;DHT22;11874;48.228;11.684;2023-03-12T22:07:36;8.10;99.90
